SMRA00 UAOL 242100
AAXX 24211
01001 46/// /3508 10014 21018 39921 49933 51016=
01002 46/// /1505 11113 21180 30062 40071 54003=
01003 41584 10707 11110 21168 30035 40049 58002 70230 81500=
01006 46/// /1203 11147 21167 30071 40087 54000=
01007 46/// /1302 11114 21185 30054 40065 52001=
01008 41589 11106 11121 21171 30029 40067 54000 70200 81501=
01009 46/// /1004 11114 2//// 30074 40082 54001=
01010 26/// /0000 10033 20024 39860 49876 57009 333 69965=
01011 46/// /0704 11183 21208 30069 40080 54001=
01013 26/// /0705 11098 21138 30048 40061 54000 333 60005=
01015 46/// /1503 10032 20032=
01016 46/// /0000 11182 21203 30064 40081 54002=
01017 46/// /0410 11151 21182 30053 40061 54000=
01020 46/// /0414 11111 21143 30028 40039 50003=
01023 21X05 91901 10022 20020 39783 49876 57010 76164 333 60005=
01024 46/// /3001 11144 21202 30055 40069 54000=
01025 47482 80302 10022 20015 39865 49877 57010 754//=
01026 21265 70402 10024 20015 39737 49876 57012 76166 8772/ 333 60005=
01028 41358 80213 11058 21068 39956 49976 58012 71022 885//=
01033 46/// /3101 10029 20006 39848 49877 57011=
01035 46/// ///// 11003 2////=
01037 46/// /2002 10043 21005 39854 49878 57010=
01042 46/// /0806 11008 2////=
01043 46/// /1307 10039 2////=
01044 46/// /1003 10034 20016 39872 49881 58017=
01046 46/// /2601 10026 20017 39873 49879 57011=
01049 26/// /1403 10039 21007 39887 49890 58012 333 60005=
01052 26/// /0501 10010 20007 39785 49882 58016 333 60005=
01055 46/// /0610 10025 20017 39872 49889 58018=
01058 26/// /1705 10003 21010 39438 49892 57015 333 60005=
01059 46/// /1504 10033 20002 39888 49898 58014=
01062 41420 50509 11126 21140 30026 40039 51007 78588 85800=
01064 46/// /1809 11014 21016 39199 49901 57016=
01065 26/// /1001 10022 21004 39749 49908 57014 333 60005=
01068 46/// /1502 10023 20009 39887 49904 58015=
01074 46/// /1902 10016 20004 39895 49910 58011=
01076 26/// /0000 10011 20001 39877 49916 57015 333 60005=
01078 46/// /1302 10014 20007 39903 49913 58009=
01082 26/// ///// 10048 21034 39858 49925 58012 333 60005=
01083 46/// /2103 10022 20009 39900 49916 58008=
01086 46/// /1903 10016 20005 39735 49917 58009=
01088 46/// /2201 10030 20012 39874 49921 57013=
01091 26/// /3003 11007 21007 333 69935=
01092 46/// ///// 10021 20003=
01098 26/// /0902 10025 20006 39902 49920 58009 333 60005=
01099 46/// /0401 10025 20003 39907 49922 58011=
01102 46/// /2310 10059 20049 39842 49861 52002=
01107 46/// /1506 10054 20051 39849 49853 57003=
01112 46/// /1908 10049 20045 39856 49866 57011=
01115 21460 81508 10052 20039 39832 49852 55006 76162 8272/ 333 69915=
01116 46/// /1708 10054 20028 39835 49856 57014=
01121 46/// /1606 10055 20030 39845 49857 57013=
01122 26/// /1905 10041 20022 39778 49866 57016 333 69935=
01124 26/// ///// 10033 20023 333 60015=
01132 26/// /1904 10024 20009 39503 49884 57011 333 69935=
01133 46/// /1702 10037 20020=
01136 46/// /2213 10029 20026=
01139 46/// /1207 10042 20037 39857 49862 57009=
01141 26/// /1002 10040 20027 39837 49867 57010 333 60005=
01143 46/// /2201 10030 20017=
01144 46/// /1204 10048 20028=
01146 26/// /0801 10032 20022 333 60005=
01147 26/// /3201 10018 20009 333 69925=
01148 46/// /1503 10025 20015=
01150 26/// /2201 10016 20010 333 60005=
01151 46/// /0000 10021 20017 39788 49873 58014=
01152 41480 80807 10046 20023 39851 49867 58009 72162 885//=
01158 26/// ///// 10024 20014 39865 49874 57010 333 60005=
01160 46/// /0703 10043 20042 39857 49870 57010=
01161 46/// /0102 10035 20023 39863 49874 57009=
01162 46/// /0502 10035 20022 39869 49874 57009=
01167 41275 80000 10040 2//// 39870 49876 57007 76166 8272/=
01169 26/// ///// 10022 20019 39828 49873 57009 333 60005=
01180 46/// /0000 10031 20016 39818 49874 57009=
01183 46/// /2501 10031 20025 39844 49876 57008=
01192 26/// /2201 10022 20004 333 69915=
01198 26/// ///// 10017 21009 39634 49880 57012 333 60005=
01199 46/// /1603 10000 21011 39443 49901 57017=
01203 46/// /2310 10053 20007 39925 49973 51014=
01205 46/// /2612 10056 20004 39917 49962 53013=
01209 46/// /0301 10042 20029 39887 49977 52015=
01210 46/// /2509 10054 20039 39938 49964 52015=
01212 26/// /2613 10059 20014 39927 49945 52015 333 60005=
01214 46/// /2509 10051 20014=
01217 46/// /2412 10055 20037 39947 49951 50011=
01218 26/// /3501 10061 20038 39939 49960 52015 333 69935=
01220 46/// /2506 11028 21032=
01221 46/// ///// 10018 21011=
01223 46/// /2510 10050 20040 39864 49940 52014=
01224 26/// ///// 10056 20016 333 60005=
01225 46/// /2614 10059 20045 39922 49927 52018=
01227 26/// ///// 10029 20014 333 69915=
01228 46/// /2712 10058 20044 39906 49913 52016=
01229 46/// /2310 10004 2////=
01230 26/// ///// 10031 21012 333 60005=
01232 26/// /3501 10062 20023 39873 49951 52018 333 69925=
01233 46/// /2602 10040 21037=
01234 46/// /2107 10060 20025=
01237 26/// /2407 10057 20048 39906 49922 53013 333 69985=
01238 41470 62506 10009 2//// 38827 49955 52008 70222 83242=
01239 26/// /2409 10010 21035 333 60005=
01240 46/// /2410 10059 20050 39875 49894 52014=
01241 41359 82509 10059 20050 39905 49915 52009 78088 888//=
01242 46/// ///// 10057 20051=
01245 26/// /2405 10040 21015 39239 49929 51009 333 60005=
01250 46/// ///// 10034 21043=
01253 26/// /1801 10038 20010 333 60005=
01254 26/// /0000 10040 20025 333 60005=
01257 26/// /2105 10056 20017 39764 49922 52009 333 69915=
01259 46/// /2212 10062 20053 39864 49886 53008=
01262 46/// /2513 10057 20040=
01265 26/// /2602 10053 21035 39367 49933 52008 333 60005=
01270 46/// ///// 10064 20024=
01271 27/84 82507 10066 20026 39906 49926 52008 781// 333 60005=
01272 46/// ///// 10059 20034=
01273 46/// /2302 10059 20013 39737 49929 52007=
01277 46/// /2105 10052 20032=
01281 46/// /0000 10030 20018 39721 49893 57009=
01282 46/// /2209 10058 20057 39872 49877 55001=
01287 46/// ///// 10028 21023=
01288 46/// /2704 10041 21021 39199 49929 51009=
01290 46/// /1909 10051 20026 39885 49888 57004=
01291 26/// /1502 10043 20030 333 69925=
01293 46/// /0901 10045 20030 39722 49926 51006=
01300 41598 72805 10059 20014 49996 52005 70222 83260 22200 02051 10704 70019=
01304 46/// /2403 10060 20043 39956 49987 52012=
01308 26/// ///// 10055 20044 333 69935=
01311 47558 83302 10049 20049 39944 40005 52005 761//=
01314 26/// /1402 10050 20024 333 60015=
01315 26/// /1201 10045 20030 333 69925=
01317 21475 82201 10056 20033 39961 40004 52004 78082 8636/ 333 60015=
01319 26/// ///// 10051 20031 333 69945=
01320 46/// /3103 1//// 2////=
01321 26/// /2901 10030 20023 39727 49978 52012 333 69945=
01323 46/// /2502 10024 20020 39608 49992 52010=
01326 26/// ///// 10040 20031 333 69925=
01327 26/// /2704 10018 20008 39455 40002 50005 333 60005=
01332 26/// /1101 10037 20036 333 60005=
01336 26/// ///// 10031 20025 333 69915=
01337 46/// /2501 10052 20029 39933 49998 52005=
01338 46/// /2107 10064 20029 39917 49982 52007=
01340 46/// /0000 10013 21003 39130 49993 52006=
01344 26/// ///// 10011 21002 333 60005=
01345 26/// /2706 10000 21022 333 69985=
01346 26/// /2608 11018 21025 333 69915=
01347 46/// /2606 10033 20010 39390 49981 51007=
01350 26/// /3007 11017 21034 38591 49979 50005 333 60005=
01352 46/// /2605 11020 21031=
01355 26/// ///// 10070 20023 39972 49977 50009 333 60005=
01357 46/// /2906 10027 21040 39030 49963 52004=
01358 46/// ///// 10029 21034 39253 49964 50006=
01359 46/// /2403 10015 21019 39077 49980 52004=
01360 41582 72703 10030 21017 70222 85838=
01361 26/// /2904 10003 21023 38946 49961 52007 333 69915=
01362 46/// /2509 11062 21075 49960 53013=
01363 46/// /2603 10009 21021 39047 49980 50005=
01364 26/// /2504 11002 21008 38868 49977 50008 333 69945=
01365 26/// /2905 10006 21035 333 60005=
01366 26/// /2508 11036 21041 38367 49973 50005 333 69915=
01367 46/// /0000 10020 21016 39530 49968 51008=
01368 46/// /3105 10013 21026 39010 49967 50003=
01370 46/// ///// 1//// 2////=
01373 26/// /3404 10065 21016 39769 49970 50011 333 60005=
01374 26/// /3301 10010 21026 333 60005=
01375 46/// /2706 10000 21033=
01376 46/// /0403 10042 21014=
01378 46/// /0802 10048 21016 39660 49946 50008=
01380 46/// /2902 10010 21040=
01381 26/// ///// 10050 21019 333 60005=
01382 26/// ///// 10057 21014 333 60005=
01383 46/// /0202 10013 21003 39644 49955 51012=
01384 41989 12602 10064 20001 52005 70200 81030=
01385 26/// /2702 10057 20020 39688 49954 52007 333 60005=
01386 26/// ///// 10037 20014 333 60005=
01387 46/// ///// 10047 21013=
01389 26/// /1001 10014 2//// 39651 49960 52007 333 60005=
01392 46/// /1601 10064 20036 39732 49953 51006=
01397 46/// /1303 10012 20006 39517 49951 50002=
01400 41698 72307 10072 20053 40044 58007 70222 8457/ 22200 06068 10603 70014=
01403 21665 72405 10059 20049 39944 40012 52004 70222 87500 333 60005=
01406 46/// /2201 10059 20045 39983 40003 52005=
01408 46/// /2305 10062 20058 39980 40012 52004=
01411 46/// /2304 10062 20052 39989 40016 51007=
01412 26/// /2506 10064 20062 39992 40022 333 60005=
01413 46/// /2702 10059 20053=
01414 46/// /2503 10061 2////=
01415 27257 82403 10066 20060 30009 40020 50005 700// 333 60005=
01416 26/// ///// 10063 20051 333 60005=
01417 26/// ///// 10065 20051 333 69925=
01418 26/// ///// 10054 2//// 333 69915=
01419 26/// /2302 10043 20019 333 60005=
01424 26/// ///// 10069 20039 30002 40005 52004 333 69925=
01426 46/// /2407 10064 2////=
01427 26/// /2507 10065 20055 30012 40028 52001 333 60005=
01429 26/// ///// 11004 2//// 333 69925=
01430 26/// ///// 10070 20057 333 60005=
01431 46/// /1601 10029 20017 39353 40011 52004=
01434 46/// /3402 10021 21050 39034 49991 53006=
01435 26/70 /2905 10001 2//// 38849 49992 52006 333 69925=
01436 46/// /2510 10066 20057=
01440 46/// /2908 11011 2//// 38732 40009 52004=
01442 26/// /1306 10063 20028 39756 40010 51005 333 60005=
01444 26/// /2501 10044 20018 333 60005=
01448 46/// /2509 10063 20053 30014 40024 50005=
01449 26/// /2602 10055 20009 333 60005=
01450 26/// /2504 11006 21026 38857 49994 52002 333 60005=
01452 26/// /2404 10068 20037 30000 40021 51007 333 60005=
01453 26/// /2304 10057 20024 333 60005=
01455 26/// /0401 10064 20001 39691 49996 53003 333 60005=
01460 46/// /2403 10076 2////=
01461 46/// /2907 11055 2//// 49987 53000=
01462 26/// /0501 10059 20016 333 60005=
01463 26/// ///// 10050 20038 333 60005=
01464 26/// /2104 10071 20035 333 60005=
01465 46/// /2507 10070 20047 39997 40011 51012=
01466 46/// /2102 10058 20043 39837 49967 52007=
01467 46/// /2204 10073 20015 30000 40006 51012=
01468 46/// /0301 10052 20035=
01471 46/// /2501 10029 21009=
01473 46/// /2801 10048 21006 39775 49980 51012=
01477 26/// /3201 10008 21003 333 60005=
01478 46/// /2410 10073 2////=
01480 26/// /3401 10070 20005 333 60005=
01481 26/// /2501 10067 20016 39950 49982 52011 333 60005=
01482 46/// /2610 10070 20038 39970 49979 52012=
01484 46/// /1502 10053 20046 39814 49967 53004=
01486 26/// ///// 10055 21005 333 60005=
01488 26/// /1403 10013 21003 333 60005=
01489 26/// ///// 10053 2//// 333 60005=
01490 26/// /3005 10040 21020 333 60005=
01492 21589 52802 10077 21005 39849 49965 52007 70222 81530 333 60005=
01494 27984 42303 10075 20028 39915 49978 52008 700// 333 60005=
01495 26/// /2507 10073 20046 39964 49977 52006 333 60005=
02500 25965 02408 10062 2//// 39939 49981 53005 8/000 333 60005 91009 90710 91112=
02513 25/61 /2305 10071 20055 30022 40026 51010 8/000 333 60005 91008 90710 91111=
02615 25982 72508 10082 20034 30074 40079 50002 333 60005 87/65 90710 91110=
02635 25/80 /2605 10094 20040 333 60005 90710 91110=
02705 46/// ///// 11011 21014 39336 49925 57020 92100 555 798//=
02714 47482 71705 10029 20010 39810 49951 57007 721// 87/// 92100 555 787// 80370 0/607=
02717 46/// /1502 10011 21004 92100 555 790// 0/604=
02719 46/// /1705 10019 21015 92100 555 60005 778// 0/106=
02721 47483 82204 10027 20023 39928 49937 54001 70000 88/// 92100 555 797// 0/508=
02722 46/// ///// 10020 21026 92100 555 772//=
02725 46/// /1702 10046 20040 92100 555 796// 0/202=
02726 47236 81604 11001 21004 39446 49901 57018 771// 88/// 92100 555 798// 80180 0/606=
02727 46/// /1802 10035 20017 39876 49975 57008 92100 555 60027 788// 0/202=
02732 46/// /1504 10031 20017 39873 49976 57014 92100 555 791// 0/004=
02733 46/// ///// 10046 20038 39944 40002 57011 92100 555 795//=
02734 46/// /1001 10036 20025 39909 40003 57012 92100 555 793// 0/502=
02735 46/// /1503 10050 20041 92100 555 794// 0/603=
02736 46/// /1603 10039 20032 39851 49988 57012 92100 555 795// 0/103=
02737 46/// /1903 10057 20040 39843 49945 54001 92100 555 60049 789// 0/607=
02738 47256 81703 10037 20036 39770 49957 57005 722// 88/// 92100 555 60037 700// 80140 0/303=
02739 47499 81503 10015 21018 39779 49978 57010 700// 88/// 92100 555 779// 0/504=
02741 47678 72103 10046 20039 39943 49958 57005 78185 87/// 92100=
02745 46/// /1702 10014 21005 39687 49950 57012 92100 555 787// 0/303=
02751 47982 71907 10051 20031 39941 49946 57008 70000 83/// 92100 555 787// 0/009=
02752 46/// /1710 10045 20027 39912 49939 57011 92100 555 788// 0/010=
02753 47983 11604 10045 20039 39801 49953 57008 70000 80/// 92100 555 795// 85100 0/104=
02754 47683 71904 10059 20032 39870 49973 57010 70000 87/// 92100=
02755 47499 81703 10048 20038 39852 49947 54000 70000 88/// 92100=
02757 47364 82007 10044 20041 39953 49983 57013 72184 85/// 92100 555 798// 0/510=
02759 47599 72004 10062 20039 39959 49988 57013 70000 87/// 92100 555 60051 785// 0/304=
02761 47782 71707 10054 20036 39918 49953 57007 70000 84/// 92100 555 788// 0/409=
02763 47699 8//// 10060 20036 39860 49962 57009 700// 88/// 92100 555 784//=
02765 46/// /1605 10028 20028 92100 555 700// 0/006=
02766 46/// /1703 10027 20008 39708 49994 57018 92100 555 788// 0/204=
02769 47981 11603 10037 20031 39829 49944 57010 70000 80/// 92100=
02772 46/// /1705 10028 20024 39892 49990 57013 92100 555 797// 0/306=
02773 47281 81703 10050 20037 39956 49967 57011 70000 88/// 92100=
02777 47273 81703 10046 20036 39830 49978 57011 70000 88/// 92100 555 793// 80190 0/404=
02778 47363 8//// 10037 20023 39898 49996 57014 70010 88/// 92100 555 791//=
02780 46/// /1801 10028 20021 39936 49940 57007 92100 555 795// 0/606=
02781 46/// /1705 10026 20021 39932 49936 57008 92100 555 796// 0/608=
02787 465// 8//// 10044 20037 39748 49954 57004 88/// 92100 555 795//=
02788 46/// /1501 10025 20011 39861 49973 57010 92100 555 791// 0/302=
02789 47382 71703 10020 21003 39780 49983 57014 70000 87/// 92100=
02790 47982 71903 10047 20037 39930 49959 57007 70000 87/// 92100=
02791 46/// /1802 10019 21003 92100 555 785// 0/603=
02793 46/// /1505 10017 20014 39896 49994 57013 92100 555 798// 0/406=
02795 47464 82104 10042 20035 39980 49992 57014 75254 88/// 92100 222// 00030 555 60038 795// 80330 0/305=
02796 46/// /1702 10026 20000 92100 555 783// 0/303=
02799 47499 71803 10021 21017 39743 49984 57015 70000 87/// 92100 555 776// 80480 0/304=
02800 46/// /1909 10022 20018 39902 49930 54001 92100 555 797// 0/610=
02801 47357 81504 11002 21014 39311 49891 57014 77770 88/// 92100=
02803 46/// /1702 10027 20020 39878 49939 57003 92100 555 795// 0/605=
02804 47/70 81704 10024 21018 700// 92100 555 60007 774// 0/505=
02805 47699 81803 10016 21002 39782 49915 57014 70000 88/// 92100=
02807 47599 71803 10033 21022 39741 49920 700// 86/// 92100=
02813 46/// /1604 10018 20005 39787 49918 57019 92100 555 792// 0/005=
02814 47468 71605 10010 20004 39675 49931 57019 78187 87/// 92100=
02815 46/// /1101 10006 20000 92100 555 795// 0/503=
02816 47481 71703 10017 21007 39622 49926 57014 70000 87/// 92100 555 784// 0/503=
02817 46/// /1809 10007 21024 39392 49919 57015 92100 555 61005 780// 0/410=
02818 46/// /2003 10026 21028 39616 49925 57013 92100 555 60005 768// 0/005=
02820 46/// /1411 11025 21028 39000 49907 57019 92100 555 798// 0/412=
02821 47/01 /1407 11014 21014 39230 49899 57019 77270 92100 555 700// 0/509=
02823 47356 81203 10008 21001 39613 49902 57021 771// 88///=
02824 460// 71403 11001 21004 39482 49906 57020 87/// 92100 555 798// 0/304=
02825 46/// /1803 10027 21001 39885 49915 57017 92100 555 782// 0/003=
02827 46/// /1805 10023 21014 92100 555 776// 0/606=
02833 46/// /1303 10049 20038 39905 49944 57008 92100 555 793// 0/103=
02834 47478 71704 10023 20002 39719 49971 57008 751// 87/// 92100 555 786// 80300 0/605=
02835 47699 70701 10034 21024 39772 49921 57013 700// 87/// 92100=
02836 47130 81303 10006 20001 39703 49923 57018 77176 88/// 92100=
02844 47157 81502 10009 20006 39793 49898 57018 76165 88/// 92100=
02845 47/70 ///// 10011 20003 724// 92100=
02847 47480 81605 10022 20006 39815 49916 57017 72286 88/// 92100 555 789// 80300 0/106=
02849 47579 81504 10018 21011 39672 49942 57017 77187 88/// 92100=
02851 47499 71703 10027 20026 39923 49938 57001 723// 87/// 92100=
02862 47181 71907 10010 20006 39916 49921 54001 72385 87/// 92100=
02863 46/// /2008 10010 20003 39898 49919 54001 92100=
02866 47499 81604 10022 20002 39799 49948 57009 72385 88/// 92100=
02868 46/// /1709 11002 21027 92100 555 784// 0/612=
02869 47499 81605 10017 21021 39638 49959 700// 88/// 92100 555 776// 80579 0/405=
02872 47/99 /1909 10038 20021 39932 49938 54001 70020 92100 555 789// 0/510=
02873 47699 82008 10011 20006 39922 49933 54001 70082 88/// 92100=
02874 46/// /2003 10021 20016 92100 555 796// 0/504=
02889 47499 81403 10014 21017 39693 49966 57013 70020 88/// 92100=
02897 47499 81604 10029 21011 39788 49968 700// 88/// 92100=
02907 46/// /2107 10013 20010 39931 49937 54000 92100=
02910 46/// /1906 10019 20017 39927 49934 57008 92100=
02913 47483 71603 10061 20042 39894 49943 57005 700// 87///=
02915 47264 81303 10035 20032 39804 49964 57008 70000 88/// 92100=
02917 47382 81303 10028 20004 39857 49979 700// 88/// 92100=
02920 46/// ///// 10025 20016 39916 49938 54001 92100=
02924 47664 80000 10040 20036 39765 49959 57007 70020 88/// 92100=
02926 47999 71603 10050 20031 39939 49951 57007 700// 80/// 92100=
02929 47482 81403 10023 20004 39844 49993 700// 88/// 92100 555 787// 80305 0/504=
02935 47050 71502 10042 20042 39798 49968 57008 71082 87/// 92100=
02937 467// 71803 10052 20031 39910 49958 57008 87/// 92100 555 60042 786// 0/204=
02939 47482 81604 10031 20010 39808 49999 57015 70000 88/// 92100=
02942 42982 41604 10050 20037 39806 49953 57006 70211 83045 555 60044 793//=
02943 46/// /1805 10055 20030 39844 49963 57009 92100 555 784// 0/106=
02945 47/99 /1703 10051 20033 39791 49967 700// 555 788// 0/503=
02947 47260 81602 10044 20040 39861 49983 57009 700// 88/// 92100=
02948 47259 81603 10040 20030 39876 49992 700// 88/// 92100 555 793// 80183 0/503=
02955 47375 81503 10032 20015 39870 49973 57011 70085 88/// 92100=
02957 47999 71704 10041 20031 39928 49939 57007 700// 87/// 92100=
02958 47159 81702 10044 20037 39868 49998 700// 88/// 92100=
02959 47259 71902 10046 20040 39870 49998 57011 710// 87/// 92100 555 796// 0/603=
02963 47781 71804 10046 20034 39843 49970 57010 70000 87///=
02964 47780 71608 10032 20031 39949 49955 57007 70000 81/// 92100=
02965 47699 71601 10056 20030 39884 49980 57010 70000 87/// 92100=
02966 47570 81703 10035 20028 39867 49988 700// 88/// 92100 555 60031 795// 0/404=
02967 47659 81904 10038 20037 39990 49997 57012 71086 88/// 92100=
02974 42380 8//// 1//// 2//// 57013 70322 885//=
02976 47566 51604 10037 20031 39983 49999 57012 700// 84/// 92100=
02978 47464 82303 10058 20041 39984 49988 57013 75254 88/// 92100=
02979 46/// /2110 10043 20041 39940 49959 57014 92100=
02980 47762 72107 10035 20032 39946 49959 57008 70085 84/// 92100=
02981 47648 82007 10039 20035 39957 49967 57012 710// 88/// 92100=
02982 46/// /2110 10043 20038 39968 49979 57015 92100=
02984 47569 82107 10044 20038 39970 49982 57015 78185 88/// 92100=
02987 46/// /1907 10049 20043 39963 49991 57015 92100=
02991 46/// /2006 10047 20029 39960 49992 57012 92100=
02992 46/// /1805 10041 20040 39991 49995 57015 92100=
02993 46/// /2108 10058 20057 39931 49949 57002 92100=
03002 45570 /0000 10064 20043 39976 49994 57001 333 81/20 87/25=
03005 41482 72307 10062 20055 39895 49995 57002 72162 875// 333 55300 20000 82710 86625=
03008 45/64 /2411 10066 20059 39932 40005 52001 92050=
03010 46/// /2511 10077 20050 40005 54000=
03017 45977 /2309 10060 20045 39980 40011 54000 333 55300 20000 85/60 85/68=
03023 45972 /2212 10078 20065 30016 40021 56002 333 8//99=
03026 45683 /2306 10050 20028 39996 40014 52001 333 55300 20000 83/39=
03031 47578 /2605 10052 20038 39705 40031 53001 761// 333 55300 20000 84/29 84/34=
03034 45683 /2111 10073 20056 30012 40025 55000 333 81/41 84/56=
03039 46/// ///// 10018 20018 333 91000=
03044 45984 /1906 10068 20037 39918 40017 57001 333 55300 20000 81/61 86/67=
03047 45684 /1903 10038 20032 39744 40048 53001 333 553// 20000 86/33=
03062 45677 /2304 10051 20028 30017 40022 53001 333 553// 20000 83/45=
03063 45984 /2503 10047 20028 39756 40032 53002 333 55300 20000 81/58=
03065 46/// /2725 11016 21016 333 90710 91132=
03066 45786 /2306 10078 20039 30017 40023 51003 333 55300 20000 84/50=
03068 42582 62205 10077 20045 30015 40023 52001 85830 333 81825 84650=
03072 46/// /3011 10009 20009=
03075 45680 /2004 10072 20058 39973 40017 52002 333 81/44 87/50=
03080 45783 /2904 10071 20031 39858 40027 52005 333 87/56=
03088 45784 /2709 10083 20049 39864 40025 53001 333 553// 20000 87/56=
03091 45683 /2901 10064 20048 39948 40027 53002 333 55300 20000 84/48=
03100 45969 /2107 10060 20053 30020 40036 56001 333 55300 20000 8//99=
03105 45562 /2305 10070 20063 30033 40050 53002 333 83/23=
03111 46472 /2509 10083 20065 30038 40050 53002 333 82/18 83/50 85/57=
03132 47668 /3003 10077 20071 30045 40059 52006 761// 333 83/34 84/44 87/50=
03134 45666 /1703 10079 20069 39973 40045 53003 333 55300 20000 81/38 86/44=
03136 47671 /2211 10084 20070 30016 40049 53003 723// 333 55300 20000 88/42=
03144 45683 /2503 10070 20049 39997 40040 53003 333 553// 20000 84/38=
03148 46/// /2813 10037 20032=
03153 47256 /2407 10068 20062 39919 40056 53002 751// 333 55300 20000 86/05=
03155 46782 /2308 10065 20053 39752 40048 53001 333 81/56 87/59=
03158 45984 /2307 10069 20057 39905 40041 57002 333 55300 20000 81/58 86/64=
03162 47468 /2307 10062 20052 39771 40057 53001 723// 333 55300 20000 81/12 85/27 86/39=
03166 47681 /2305 10081 20058 39971 40040 53002 723// 333 55300 20000 82/37 86/50=
03171 45784 /2707 10070 20031 30019 40032 55001 333 55300 20000 81/50 83/66=
03204 41356 82308 10079 20071 30048 40068 52006 78182 888// 333 55300 20000 84707 88712=
03210 46681 /1908 10066 20062 39913 40064 53005 333 86/33 85/56=
03212 45682 /0000 10070 20058 39963 40062 53003 333 87/41=
03214 45383 /2705 10071 20064 30048 40067 53009 333 82/06 87/56=
03220 46684 ///// 10078 20055 30024 40059 52002 333 83/42 87/56=
03224 45162 /2707 10049 20047 39708 40054 56001 333 81/02 87/50=
03225 46984 /3603 10043 20031 39756 40064 53002 333 55300 20000 88/60=
03226 45984 /3503 10049 20037 39782 40059 55000 333 87/61=
03227 46/// /2713 10011 20011=
03230 46683 /2502 10070 20043 39795 40050 56003 333 87/45=
03238 45775 /2705 10059 20055 39873 40046 56007 333 87/56 85/66=
03240 45783 /2208 10082 20056 30014 40042 57007 333 55300 20000 88/56=
03257 41665 72802 10076 20070 30013 40053 55005 76166 875// 333 55300 20000 81640 87650=
03265 47767 /3505 10081 20072 30024 40054 55005 761// 333 87/56=
03266 41458 83206 10083 20076 30034 40051 55005 76166 885// 333 83618 88650=
03275 47763 /2702 10071 20066 39857 40048 56012 761// 333 88/50=
03281 46/// /0203 10060 20060=
03292 462// /0208 10076 20073 30020 40039 56017 333 81/03 83/15 85/50=
03301 46674 /2208 10070 20064 30012 40085 53013 333 81/33 87/39=
03302 45680 /2010 10080 20070 30069 40083 53012 333 55300 20000 87/42=
03313 46684 /2506 10071 20060 39987 40081 53016 333 87/41 84/63=
03316 47682 /2812 10079 20067 30064 40075 53017 723// 333 84/43 84/60=
03318 46/// /2813 10076 20060=
03321 45879 /2806 10073 20061 30067 40079 53023 333 55300 20000 83/57=
03330 47262 /3108 10069 20068 39706 40065 53019 781// 333 85/03 85/12=
03344 47582 /3106 10064 20059 39742 40059 53003 761// 333 81/21 83/41 86/50=
03346 46/// /2906 10070 20070=
03351 47356 /3005 10082 20078 30028 40070 53023 723// 333 55300 20000 81/06 87/50=
03354 47372 /3310 10097 20080 39914 40055 53006 723// 333 55300 20000 85/06 83/13=
03373 46250 /3111 10097 20094 39968 40037 55008 333 86/03 83/34 90710 91125=
03377 41250 83112 10100 20095 39956 40039 55009 76365 887// 333 55300 20000 87703 90710 91127=
03379 46436 /2321 10120 20108 39962 40038 56011 333 81/19 86/33 90710 91127=
03382 47356 /3407 10083 20080 30033 40042 55012 762// 333 55300 20000 81/07 85/10=
03385 46480 /2117 10127 20115 30008 40018 56034 333 82/14 85/50=
03391 41582 82316 10129 20109 30026 40034 56019 72162 8753/ 333 84620 87635 90710 91125=
03392 46480 /2217 10128 20119 30030 40033 56026 333 84/13 83/31 85/39 90710 91125=
03405 46650 /2308 10068 20063 39984 40100 52019 333 55300 20000 81/31 85/36 86/50=
03409 46/// /0000 10075 20056 39884 40083 51023 333 55300 2////=
03410 46484 /3003 10060 20051 39647 40081 51026 333 55300 20000 86/18 84/33=
03414 47473 /3006 10082 20071 39989 40077 53029 723// 333 55300 20000 81/13 86/45=
03462 47458 /2318 10121 20108 39958 40045 56007 757// 333 55300 20000 87/12 90710 91127=
03469 47449 /2319 10128 20118 30040 40043 56019 757// 333 553// 20000 87/13 90710 91127=
03482 41460 82116 10128 20117 30025 40050 56022 75865 887// 333 86710=
03488 47467 /2117 10127 20119 30016 40041 56030 762// 333 86/15 84/57 90710 91132=
03502 47560 /2206 10065 20065 39940 40103 51022 710// 333 55300 20000 81/25 85/34=
03503 45380 /3002 10079 20071 30019 40096 51029 333 83/06 86/27=
03507 47284 /2704 10067 20064 39727 40098 53026 722// 333 85/03 87/13=
03520 46485 /2905 10095 20069 39964 40084 53021 333 55300 20000 83/19=
03522 45581 /2713 10101 20074 39994 40086 53018 333 86/21=
03529 45484 /2612 10120 20097 30033 40075 53004 333 82/17 86/21 91022=
03535 47458 /2508 10113 20104 39946 40062 53008 751// 333 553// 20000 85/10=
03544 47380 /2410 10116 20107 39931 40059 55004 757// 333 553// 20000 85/07 87/17=
03560 47472 /2211 10120 20108 39958 40060 55015 761// 333 553// 20000 86/11=
03590 47480 /2214 10124 20101 39958 40065 58020 781// 333 55300 20000 83/17 86/57=
03604 46271 /2709 10089 20087 30056 40110 51024 333 88/03=
03605 46381 /2710 10090 20080 30099 40108 51029 333 84/08=
03609 46/// /2708 10091 20088 30061 40113 53031=
03628 45270 /2517 10097 20090 30020 40091 53007 333 55300 20000 87/04 90710 91131=
03647 46381 /2521 10104 20092 39820 40072 55003 333 553// 20000 87/08 90710 91132=
03649 41270 82612 10117 20103 39979 40078 55002 72152 885// 333 55300 2//// 81704 84712 87618=
03658 41475 82113 10124 20102 30011 40080 56010 72162 886// 333 87713=
03660 47377 /2311 10111 20102 39833 40076 56012 723// 333 87/07 85/14 91022=
03672 46463 /2313 10127 20104 30043 40082 56011 333 87/14=
03684 47480 /2318 10127 20100 39967 40071 56016 723// 333 87/16 85/59 90710 91126=
03693 45482 /2214 10130 20106 30084 40086 56016 333 55300 2//// 87/16 85/22=
03707 45378 /2809 10094 20087 30110 40118 52022 333 82/06 87/14=
03710 46172 /2912 10071 20071 39692 40112 53016 333 55300 20000 88/02 90710 91125=
03716 45263 /2812 10091 20082 30043 40102 53018 333 55300 20000 82/05 87/18=
03740 461// /2611 10110 20107 39911 40085 55001 333 55300 20000 87/02=
03743 46361 /2311 10113 20103 39931 40090 56008 333 87/07 85/14=
03746 47379 /2316 10113 20099 39941 40092 56008 761// 333 87/07 83/13 85/17 90710 91126=
03749 41357 72313 10114 20104 39986 40095 56010 76262 875// 333 85706 86615=
03761 41362 82317 10112 20101 39947 40089 56014 76062 887// 333 55300 20000 88708 90710 91129=
03768 46459 /2215 10116 20105 30013 40091 56012 333 88/10=
03769 45265 /2312 10116 20106 30017 40098 56013 333 55300 20000 88/04=
03770 46/// ///// 10130 20104=
03772 47480 /2216 10129 20107 30056 40086 56010 757// 333 55300 20000 87/13 90710 91126=
03781 45273 /2318 10112 20103 39891 40095 56009 333 553// 20000 88/04 90710 91127=
03784 46/// /2112 10131 20103 30081 40084 56016 333 91022=
03796 46/// /2418 10103 20099 39965 40107 57014 333 90710 91130 91030=
03797 45381 /2314 10122 20105 30043 40102 57011 333 55300 20000 87/09=
03803 45478 /2813 10096 20085 30109 40147 53021 333 81/14=
03808 41362 82909 10091 20082 30030 40137 52019 70262 886// 333 55300 20000 88709=
03809 41366 62807 10085 20074 30045 40138 53020 70165 866// 333 81708 86714=
03823 45364 /3010 10081 20078 39883 40126 53015 333 553// 20000 83/06 86/10=
03827 47266 /3009 10097 20090 30065 40127 53014 723// 333 81/03 87/10=
03840 47267 /3011 10082 20074 39810 40114 53011 723// 333 87/04 84/11 90710 91125=
03853 41460 42614 10121 20104 30079 40102 53002 72165 84500 333 55300 20000 81710 84620=
03857 47150 /2426 10103 20102 30048 40111 56009 723// 333 88/02 90710 91132=
03862 47359 /2517 10114 20108 30092 40104 56008 762// 333 55300 20000 88/06 90710 91128=
03866 46/// /2521 10103 20098 30087 40112 57009 333 90710 91128=
03872 45268 /2520 10114 20104 30103 40108 56012 333 553// 20000 88/04 90710 91130=
03876 46/// /2322 10109 20104 30109 40111 56014 333 90710 91130=
03882 47258 /2511 10107 20102 30049 40112 56012 723// 333 55300 20000 88/04 91023=
03894 41015 82414 10105 20105 40143 55004 75064 887// 333 82700 86701=
03901 45683 /2202 10070 20061 39979 40067 53008 333 55300 20000 81/37 83/44=
03904 47480 /0601 10067 20053 30004 40064 52007 723// 333 82/17 83/23=
03907 45480 /2512 10090 20069 30051 40059 53008 333 55300 20000 83/17 84/46=
03911 45981 /3010 10067 20057 39790 40063 52007 333 8//99=
03915 47675 /2605 10082 20064 39980 40058 53010 723// 333 87/44=
03916 47469 /2507 10070 20063 39870 40059 53004 761// 333 553// 20000 81/15 86/23=
03917 47473 /2405 10079 20069 39989 40065 52011 761// 333 55300 20000 81/11 87/31=
03923 47683 /3108 10066 20049 39870 40066 52008 781// 333 81/31 83/36=
03951 45666 /2707 10096 20070 30102 40128 53015 81/// 333 81/47=
03952 45/80 /2802 10086 20047 30069 40119 52019=
03953 47568 /2406 10096 20061 30092 40123 52010 7028/ 83/// 333 83/25=
03955 42482 12605 10075 20047 39923 40121 52018 81802 333 81815=
03956 47582 /2302 10084 20061 30031 40107 53018 7018/ 81/// 333 81/27=
03961 47/83 /2705 10077 20052 30022 40098 52013 7025/=
03962 42470 12405 10085 20058 30082 40106 52010 81800 333 81818=
03963 45964 /2509 10091 20066 30061 40089 53005 80/// 333 83/74=
03966 47681 /2403 10071 20058 30005 40098 52014 7238/ 87/// 333 81/42 87/50=
03967 42470 32505 10080 20065 39973 40087 53011 83500 333 81718=
03969 41480 32707 10079 20057 39980 40084 53009 72581 83500 333 81717 83650=
03970 46/// /2103 10063 20045 30000 40085 53006=
03971 47583 /2401 10058 20041 39963 40086 53016 7038/ 81/// 333 81/24=
03973 46/// /2505 10061 20047 39829 40084 52009=
03976 47558 /2405 10085 20066 30060 40072 53002 7238/ 81/// 333 81/23 81/48=
03978 47561 /2305 10074 20054 30026 40069 53006 7031/ 81/// 333 81/27=
03979 47/82 /2501 10063 20055 39978 40075 52010 7015/=
03980 47673 /2306 10072 20051 30028 40053 53004 7238/ 84/// 333 82/40 83/56 84/58=
04005 42486 70516 10002 21026 40004 51001 858// 555 3/418=
04013 42589 70408 10018 21032 49981 52003 82510 555 3//12=
04018 41470 80412 10045 20028 49947 52004 76186 885// 555 3//13 82710 84718 88629=
04030 41581 80805 10049 20015 49949 52004 71562 8852/ 555 3//08 82625 88533=
04063 42580 83102 10004 21007 40003 52003 8672/ 555 3//04=
04073 42483 83409 11034 21045 40003 53002 8344/ 555 3//13=
04082 41570 89902 10036 20010 49981 57002 71022 885// 555 3//09 88626=
04085 42586 72305 11005 21040 49995 52003 87600 555 3//09=
04097 42589 61001 10011 21025 49988 52002 86300 555 3/309=
04416 46/// /2306 11308 21320 36623 54000=
06011 25480 73404 10053 20026 39917 49986 54000 333 55300 20007 6///7 83/17 85/25 87/29=
06019 26/// /2309 10053 20047 333 55300 20000 6///7=
06030 25/66 /2416 10078 20059 30032 40047 52002 333 6///7=
06031 26/// /2408 10056 20042 333 55300 20000 6///7=
06041 25362 12619 10060 20053 30018 40024 52011 333 55300 20000 6///7 81/07 91138=
06049 45/71 /2410 10059 20041 39951 40060 52002=
06052 27956 72415 10063 20054 30053 40057 57004 71011 333 6///7 83/65 87/66=
06058 27858 82413 10073 20061 30065 40070 57008 71011 333 55300 20004 6///7 83/59 88/61=
06060 25468 72408 10071 20052 30003 40067 57003 333 6///7 87/10=
06069 46/// ///// 39992 52001=
06070 25/66 /2409 10080 20050 30042 40072 52004 333 6///7 91020 91129=
06074 25968 82408 10069 20042 30003 40070 52001 333 6///7 88/63=
06081 46/// /2317 10069 20064 30057 40079 57009=
06096 47558 72416 10072 20070 30075 40086 57006 75154 333 55300 20000 81/28 85/33 87/40=
06108 46/// /2309 10076 20054 30028 40083 57004=
06119 27362 12414 10071 20054 30071 40094 57004 75254 333 69907 81/07=
06123 45/61 /2510 10075 20062 30086 40090 57002 333 55300 20000=
06136 26/// /2509 10082 20048 333 55300 20000 6///7=
06138 46/// /2414 10089 20067 30094 40098 52001=
06141 25970 72409 10087 20045 30087 40098 52001 333 55300 20000 6///7 83/61 87/62=
06147 25/67 /2612 10087 20055 30092 40097 52005 333 6///7=
06149 26/// /2514 10095 20064 30095 40101 52001 333 55300 20000 6///7=
06159 25/65 /2521 10079 20063 30058 40077 52002 333 6///7=
06168 46/// /2407 10082 20042 30016 40068 52006 333 91119=
06169 25/72 /2519 10084 20060 30050 40069 52004 333 6///7=
06174 25/79 /2408 10083 20042 30058 40084 52008 333 55300 20000 6///7=
06180 25/82 02512 10090 20044 30074 40080 54000 333 6///7=
06181 46/// /2508 10089 20043 30024 40075 52006 333 91121=
06183 45/80 /2617 10088 20059 30060 40078 52005=
06193 25/67 02520 10064 20064 30063 40075 52003 333 55300 20004 6///7=
06201 47356 81108 10064 20062 39997 40049 57040 75366 8//// 333 81/07 85/12 86/16 91009 91109 91208 555 51109 51208=
06203 47259 82012 10101 20095 30018 40069 58017 71010 8//// 333 81/06 85/50 88/65 91014 91118 91215 555 51115 51213=
06204 47259 82113 10098 20091 30004 40054 58043 72365 8//// 333 85/04 87/06 87/23 91015 91115 91213 555 51115 51213=
06205 47062 02205 10070 20062 30021 40059 58017 75186 80000 333 543// 90730 91006 91111=
06206 47257 81205 10071 20069 30026 40059 58041 75885 88/// 333 543// 84/03 85/06 88/07 90730 91006 91106=
06207 47256 81912 10094 20087 30027 40062 58046 75866 88/// 333 543// 82/04 83/05 86/07 90730 91013 91113=
06208 47256 81806 10100 20094 30034 40083 58032 75266 8//// 333 81/05 85/28 87/32 91007 91107 91206 555 51107 51206=
06211 47015 81407 10078 20078 39982 40038 56053 76265 8//// 333 83/00 85/01 86/03 91008 91111 91209 555 51111 51209=
06212 461// 81814 10097 20091 30004 40066 58041 8//// 333 84/02 87/04 88/05 91016 91116 91214 555 51116 51214=
06225 46/// /2214 333 91017 91117 91214 555 51117 51214=
06229 46/// /2111 333 91013 91113 91211 555 51113 51211=
06235 17236 82109 10103 20099 30079 40078 58034 60045 76265 88/// 333 543// 55/// 21102 553// 20001 82/04 88/05 90730 91013 91113=
06239 47565 82302 10067 20053 30039 40067 58021 78165 88/// 333 543// 84/32 87/38 88/47 90730 91002 91112=
06240 17456 82209 10125 20107 30099 40094 57023 69925 75286 88/// 333 543// 55/// 21152 553// 20000 83/18 85/22 88/26 90730 91012 91115=
06242 47256 82010 10102 20097 30068 40072 58040 76266 8//// 333 82/05 83/06 85/09 91012 91114 91211 555 51114 51211=
06248 46/// /2210 333 91012 91112 91210 555 51112 51210=
06249 47/31 /2108 10117 20109 75366 333 91013 91113 91208 555 51113 51208 53000=
06251 17/56 /2111 10111 20102 30074 40075 58036 60025 76266 333 543// 55/// 21493 553// 20000 90730 91014 91114=
06252 46/// /2213 10095 20088 30014 40052 56040 333 543// 90730 91015 91116=
06257 46/// ///// 10111 20100 555 53000=
06258 46/// /2210 48/// 333 543// 90730 91013 91113=
06260 17583 82205 10144 20090 30098 40101 58018 60005 7028/ 88/// 333 543// 55/// 20747 553// 20000 82/29 84/34 88/39 90730 91008 91109=
06269 17568 82208 10137 20092 30097 40092 58024 60005 75186 88/// 333 543// 55/// 20837 553// 20002 81/22 86/25 88/29 90730 91011 91111=
06270 17243 81803 10104 20099 30086 40085 58028 60015 76266 88/// 333 543// 55/// 21247 553// 20000 81/06 83/09 85/16 90730 91007 91107=
06273 47/59 /1603 10119 20105 72385 333 91004 91104 91203 555 51104 51203 53000=
06275 45581 82004 10137 20087 30050 40104 58018 8//// 333 81/33 86/44 88/50 91006 91107 91205 555 51106 51204 53000=
06277 46/// /1604 10100 20096 333 91005 91109 91206 555 51105 51204 53000=
06278 46/// /2003 10135 20091 333 91005 91105 91203 555 51105 51203 53000=
06280 17456 81403 10108 20100 30088 40092 58024 69975 76265 88/// 333 543// 55/// 20761 553// 20000 81/19 83/28 85/33 90730 91004 91104=
06290 17769 81904 10130 20085 30066 40107 58019 60005 72385 88/// 333 543// 55/// 20553 553// 20000 88/56 90730 91007 91107=
06310 17480 82209 10129 20105 30098 40108 58018 60005 702// 88/// 333 543// 55/// 21173 553// 20000 82/15 87/45 88/50 90730 91010 91112=
06319 45/78 /2306 10137 20102 30112 40114 58016 333 91009 91112 91208 555 51112 51208 53000=
06320 45/63 /2313 10108 20094 30063 40089 56024 333 91015 91116 91213 555 51115 51213=
06321 45/64 /2013 10107 20094 30068 40091 58021 333 91015 91116 91213 555 51116 51213=
06323 46/// /2205 10137 20101 30107 40109 58017 333 91010 91111 91208 555 51111 51207 53000=
06330 46/// /2212 10122 20104 30084 40098 57022 333 91019 91119 91214 555 51119 51214 53000=
06340 45572 82405 10140 20104 30094 40112 58015 8//// 333 81/24 88/27 91008 91108 91205 555 51108 51205=
06343 46/// /2309 333 91013 91115 91210 555 51115 51210=
06344 17482 82309 10136 20101 30107 40102 56019 60005 702// 88/// 333 543// 55/// 20946 553// 20007 84/17 85/20 88/33 90730 91015 91115=
06350 45571 82002 10138 20099 30097 40111 58016 8//// 333 86/29 88/32 91003 91106 91204 555 51103 51202 53000=
06370 17778 82004 10144 20093 30087 40112 58018 60005 702// 88/// 333 543// 55/// 21017 553// 20000 88/50 90730 91005 91105=
06375 45680 81903 10138 20092 30087 40111 58017 8//// 333 87/35 88/41 91005 91106 91204 555 51105 51203 53000=
06380 17681 82105 10161 20093 39986 40121 58014 60005 702// 88/// 333 543// 55/// 21226 553// 20000 85/48 88/50 90730 91007 91107=
06391 46/// /1903 10144 20093 333 91005 91105 91203 555 51105 51203 53000=
06400 42470 62305 10126 20108 30111 40117 57017 818// 333 81712 85642 91111 91208=
06407 42475 62308 10123 20099 30111 40117 58018 84530 333 81613 83656 85358 91112 91209=
06414 46/// /2204 10128 20107 30091 40123 58016 333 91110 91205=
06418 46/// /2207 10128 20100 30098 40114 58015 333 91112 91209=
06428 47568 /2403 10135 20102 30082 40125 58008 70060 333 87/28 88/50 91107 91204=
06431 46/// /2305 10140 20113 30107 40120 58015 333 91110 91207=
06432 45770 /2402 10147 20114 30057 40127 57010 333 88/50 91105 91203=
06434 46/// /2504 10142 20110 30104 40124 58009 333 91107 91204=
06439 46/// /2303 10158 20096 30112 40124 58014 333 91107 91205=
06447 46/// /2002 10153 20106 39997 40118 58013 333 91110 91206=
06449 42770 71902 10145 20102 39909 40131 57011 875// 333 86650 91107 91205=
06450 42782 72703 10147 20097 30103 40118 58015 8457/ 333 84650 87358 91106 91204=
06451 42782 72103 10151 20105 30057 40123 58013 875// 333 87650 91109 91206=
06456 42670 51903 10126 20076 39798 40135 57009 81531 333 81638 84076 91105 91203=
06458 42575 62204 10156 20093 39991 40125 58011 83531 333 81630 83640 85359 91108 91206=
06459 46/// /2003 10146 20104 39940 40131 57012 333 91106 91204=
06464 46/// /2003 10154 20102 30094 40122 56017 333 91105 91203=
06465 45670 /2002 10153 20104 30061 40122 57013 333 88/47 91105 91202=
06472 46/// /1904 10119 20070 39794 40147 56009 333 91106 91204=
06476 45983 02104 10107 20062 39491 40143 57011 333 91107 91204=
06477 46/// /2601 10150 20112 40125 333 91103 91202=
06478 42680 72003 10145 20096 39916 40130 57008 875// 333 85642 85650 91109 91206=
06479 42670 72103 10151 20099 30050 40122 57014 875// 333 84640 86650 91105 91203=
06484 46/// /2801 10102 20075 39759 40147 58007 333 91104 91203=
06490 45581 12004 10124 20065 39579 40136 57010 333 81/33 91106 91204=
06494 46/// /2003 10103 20073 39349 40132 58009 333 91107 91205=
06496 45/70 /2102 10110 20072 39479 40137 57009 333 91107 91204=
06590 42981 32003 10134 20071 39704 40145 57009 80001 333 83072 91106 91205=
06601 16/// /2104 10153 20097 39792 40164 51004 60005 333 54/15 55300 20000 90730 91107=
06602 16/// /2500 10118 20103 39656 40174 52005 60005 333 54/16 55300 20004 90730 91105=
06604 16/// /2505 10179 20078 39601 40158 53006 60005 333 54/15 55300 20000 90730 91118=
06605 16/// /2417 10087 20050 38417 48514 57001 60005 333 54/15 55300 20000 90730 91121=
06606 16/// /1102 10140 20093 39663 40167 52007 60005 333 54/16 55300 20000 90730 91113=
06608 16/// /2605 10120 20062 38894 48515 52001 60005 333 54/15 55300 20000 90730 91110=
06609 16/// /2811 10073 20019 38042 48517 57003 60005 333 54/15 55300 20000 90730 91124=
06610 12970 62104 10143 20093 39596 40166 51007 60005 80001 333 54/16 55300 20000 86073 90730 91107=
06612 16/// /0000 10090 20066 39022 48510 52001 60005 333 54/15 55300 20000 90730 91106=
06616 16/// /2002 10133 20078 39477 40169 50000 60005 333 54/15 55300 20011 90730 91104=
06617 16/// /0600 10032 20028 38987 48500 52001 60005 333 54/11 55300 20000 90730 91108=
06618 16/// /1909 10139 20092 39660 40172 52007 60005 333 54/16 55300 20011 90730 91118=
06619 16/// /2508 10125 20032 38823 48519 52002 60005 333 55300 20007 90730 91117=
06620 16/// /2708 48/// 60005=
06621 16/// /2307 10141 20096 39646 40161 52002 60005 333 54/15 55300 20011 90730 91108=
06623 16/// /2403 10149 20098 39339 48510 52002 60005 333 54/15 55300 20000 90730 91107=
06624 16/// /0100 10116 20095 39675 40170 51006 60005 333 54/17 55300 20000 90730 91104=
06625 16/// /2203 10136 20067 39420 48509 52006 60005 333 54/16 55300 20004 90730 91104=
06626 16/// /1102 10135 20101 39719 40168 51006 60005 333 54/16 55300 20007 90730 91106=
06627 16/// /0201 10099 20049 39017 48517 51009 60005 333 54/15 55300 20000 90730 91107=
06628 16/// /1403 10120 20038 38993 48514 52002 60005 333 54/15 55300 20011 90730 91109=
06631 16/// /1901 10129 20078 39526 40171 53006 60005 333 54/17 55300 20000 90730 91103=
06632 16/// /0502 10128 20094 39666 40170 53008 60005 333 54/16 55300 20000 90730 91106=
06633 12965 21601 10144 20101 39712 40166 51006 60005 333 54/16 55300 20007 82365 90730 91106=
06635 16/// /1201 10119 20078 39603 40173 53007 60005 333 54/16 55300 20000 90730 91105=
06636 16/// /0801 10122 20096 39608 40172 53009 60005 333 54/17 55300 20004 90730 91103=
06637 12975 01402 10135 20057 39491 40174 51007 60005 8/000 333 54/15 55300 20004 90730 91108=
06639 16/// /2706 10116 20035 38614 48517 55000 60005 333 54/15 55300 20000 90730 91111=
06641 16/// /3201 10132 20106 39764 40170 51005 60005 333 54/15 55300 20000 90730 91104=
06643 16/// /2201 10128 20097 39670 40167 52006 60005 333 54/15 55300 20004 90730 91104=
06644 16/// /0701 10097 20096 39638 40176 52006 60005 333 54/18 55300 20000 90730 91104=
06645 16/// /2302 10148 20093 39461 48510 52004 60005 333 54/15 55300 20004 90730 91106=
06646 16/// /1800 10128 20104 39780 40167 52007 60005 333 54/17 55300 20011 90730 91103=
06647 16/// ///// 10126 20102 39774 40171 52007 60005 333 54/16 55300 20007=
06648 16/// /1202 10123 20094 39561 40172 52007 60005 333 54/16 55300 20011 90730 91106=
06650 16/// /2802 10141 20094 39636 40167 52006 60005 333 54/16 55300 20000 90730 91108=
06651 16/// /1903 10095 20078 39318 48501 53006 60005 333 54/16 55300 20000 90730 91110=
06655 16/// /0702 10093 20052 39002 48511 52002 60005 333 54/15 55300 20000 90730 91106=
06656 16/// /1003 39515 48/// 51009 60005 333 90730 91105=
06657 16/// /2803 10098 20089 39620 40179 52005 60005 333 54/18 55300 20000 90730 91110=
06659 16/// /2212 10061 20024 37917 48517 57001 60005 333 55300 20000 90730 91120=
06660 16/// /3101 10152 20089 39519 40161 52004 60005 333 54/15 55300 20000 90730 91108=
06664 16/// /1400 10133 20099 39645 40166 52005 60005 333 54/16 55300 20004 90730 91105=
06666 16/// /2603 10129 20108 39763 40167 51007 60005 333 54/16 55300 20014 90730 91106=
06669 46/// /30// 10143 20082 39199 48508 51001 333 54/15 55300 20004 90730 91115=
06670 12980 63601 10136 20100 39664 40165 51005 60005 80002 333 54/15 55300 20007 86078 90730 91107=
06671 46/// /2204 39694 48/// 52004 333 90730 91105=
06672 12970 01602 10126 20087 39656 40172 52007 60005 8/000 333 54/15 55300 20000 90730 91105=
06673 16/// /2201 10144 20087 39599 40165 52006 60005 333 54/15 55300 20007 90730 91111=
06674 16/// /0802 10150 20107 39650 40166 51007 60005 333 54/15 55300 20000 90730 91106=
06675 16/// /2601 10101 20101 39134 48506 51003 60005 333 54/16 55300 20000 90730 91106=
06676 46/// /2901 48/// 333 90730 91104=
06678 16/// /2502 10112 20112 39620 40172 52004 60005 333 54/18 55300 20014 90730 91104=
06679 16/// /2202 10112 20087 39538 40170 52005 60005 333 54/15 55300 20004 90730 91105=
06680 16/// /2312 10032 21001 37545 47099 58001 60005 333 55300 20000 90730 91123=
06681 16/// /1904 10132 20076 39274 48504 50001 60005 333 54/15 55300 20000 90730 91106=
06682 16/// /1503 10086 20055 39086 48507 50002 60005 333 54/15 55300 20000 90730 91107=
06683 46/// /0601 39689 48/// 51006 333 90730 91104=
06685 16/// /2601 10128 20085 39568 40173 51007 60005 333 54/15 55300 20007 90730 91104=
06686 16/// /1506 10142 20094 39591 40169 51008 60005 333 54/15 55300 20000 90730 91112=
06687 46/// /3600 39675 48/// 51009 333 90730 91105=
06688 46/// /2408 10036 21020 37560 47103 50002 333 54/15 55300 20004 90730 91116=
06689 16/// /3007 10124 20068 38893 48512 50000 60005 333 54/15 55300 20000 90730 91109=
06690 16/// /1903 10150 20093 39693 40158 50000 60005 333 54/15 55300 20000 90730 91107=
06693 16/// /3301 10101 20095 39450 48497 51005 60005 333 54/16 55300 20004 90730 91103=
06695 16/// /1402 10025 20004 38589 48523 50002 60005 333 54/15 55300 20000 90730 91107=
06700 12982 22504 10151 20084 39689 40170 51008 60005 80001 333 54/16 55300 20000 82080 90730 91107=
06702 16/// /2613 10089 21004 38350 48523 52001 60005 333 55300 20000 90730 91121=
06704 16/// /2304 10148 20054 39385 48515 52006 60005 333 54/15 55300 20004 90730 91112=
06705 16/// /3003 10134 20076 39634 40171 52008 60005 333 54/16 55300 20000 90730 91109=
06706 46/// /2603 48/// 333 90730 91105=
06708 16/// /1203 10144 20080 39227 48518 52004 60005 333 54/15 55300 20000 90730 91108=
06709 46/// /1302 10163 20074 39733 40169 53009 333 54/15 90730 91105=
06711 16/// /0304 10162 20085 39636 40165 51008 60005 333 54/15 55300 20007 90730 91107=
06712 16/// /2201 10138 20069 39723 40172 51010 60005 333 54/15 55300 20007 90730 91108=
06714 46/// /2317 10025 21223 37129 47113 51002 333 55300 20000 90730 91122=
06715 16/// /2001 10171 20056 39610 40166 51009 60005 333 54/15 55300 20007 90730 91108=
06717 16/// /2605 10036 21041 37567 47116 52004 60005 333 54/15 55300 20000 90730 91109=
06720 16/// /1701 10148 20059 39613 40174 51018 60005 333 54/16 55300 20000 90730 91110=
06722 16/// /0604 10085 21019 38196 48526 52004 60005 333 54/15 55300 20000 90730 91109=
06723 46/// /1907 10030 21040 37338 47117 52002 333 55300 20000 90730 91110=
06724 16/// /0403 10084 20022 38603 48524 51008 60005 333 54/16 55300 20004 90730 91105=
06725 16/// /0601 10039 21011 38489 48528 51006 60005 333 54/15 55300 20014 90730 91106=
06727 16/// /0701 10121 20041 39439 48510 51024 60005 333 54/18 55300 20000 90730 91109=
06728 16/// ///// 10091 21019 38417 48524 52008 60005 333 54/15 55300 20000=
06730 46/// /3405 11014 21230 36609 47115 52002 333 54/15 55300 20000 90730 91115=
06731 16/// /3002 10116 20084 39509 40176 52007 60005 333 54/16 55300 20000 90730 91106=
06733 16/// /2002 10091 20061 39240 48507 52009 60005 333 54/16 55300 20000 90730 91104=
06734 16/// /2002 10132 20083 39502 40173 51009 60005 333 54/15 55300 20004 90730 91112=
06735 16/// /2702 10094 20029 38698 48518 50000 60005 333 54/15 55300 20014 90730 91104=
06739 46/// /2707 10008 21062 37194 47114 52002 333 55300 20000 90730 91114=
06740 46/// /2414 10018 21183 37012 47108 51002 333 54/05 55300 20000 90730 91119=
06744 16/// /1615 10067 21014 38062 48524 57001 60005 333 55300 20000 90730 91119=
06745 16/// /0602 10027 20002 38685 48521 51010 60005 333 54/15 55300 20004 90730 91103=
06747 46/// /1503 37203 47117 52/// 333 55300 20014=
06748 16/// /2202 10070 21030 38386 48529 52007 60005 333 54/15 55300 20004 90730 91105=
06749 46/// /1504 10008 21112 36988 47116 52001 333 55300 20000 90730 91105=
06750 16/// /1516 10048 20013 37747 48520 50001 60005 333 54/15 55300 20000 90730 91124=
06751 16/// /0602 10059 20024 38130 48530 52004 60005 333 55300 20004 90730 91111=
06752 16/// /0202 10148 20096 39684 40177 51022 60005 333 54/16 55300 20004 90730 91115=
06753 16/// /2807 10107 20037 39060 48520 51018 60005 333 54/15 55300 20007 90730 91116=
06754 46/// /1510 10061 20042 37844 48526 50004 333 54/15 55300 20000 90730 91114=
06756 16/// /3204 10148 20082 39507 40172 51020 60005 333 54/16 55300 20004 90730 91110=
06758 16/// /0102 10147 20100 39790 40171 51021 60005 333 54/18 55300 20004 90730 91113=
06759 16/// /2209 10094 20059 38360 48524 51006 60005 333 54/15 55300 20000 90730 91113=
06760 16/// /0503 10199 20092 39733 40163 51014 60005 333 54/15 55300 20000 90730 91112=
06762 16/// /3003 10159 20105 39923 40164 51016 60005 333 54/17 55300 20000 90730 91108=
06770 16/// /3201 10176 20126 39817 40168 51015 60005 333 54/15 55300 20000 90730 91114=
06771 16/// /2302 10136 20093 39761 40177 51015 60005 333 54/16 55300 20007 90730 91104=
06777 16/// /3203 10106 20058 38425 48527 51005 60005 333 54/15 55300 20000 90730 91111=
06778 16/// /1302 10006 21013 38056 48536 52009 60005 333 54/15 55300 20014 90730 91104=
06779 16/// /2202 10019 20002 38218 48532 52007 60005 333 54/15 55300 20004 90730 91110=
06780 16/// /2013 10028 21022 37387 47108 58001 60005 333 54/15 55300 20000 90730 91119=
06782 16/// /2501 10102 20022 38836 48520 51011 60005 333 54/15 55300 20007 90730 91104=
06783 16/// /3100 10045 20026 38386 48530 52006 60005 333 54/15 55300 20000 90730 91102=
06784 16/// /1702 10057 20008 38422 48520 50/// 60005 333 55300 20000 90730 91104=
06785 16/// /3001 10094 21006 38137 48515 50001 60005 333 54/05 55300 20004 90730 91106=
06786 11940 01702 10139 20087 39525 40171 51014 60005 70500 8/000 333 54315 55300 20014 90730 91110=
06787 16/// /0201 10109 20053 39055 48513 51013 60005 333 54/15 55300 20000 90730 91104=
06788 16/// /0503 10119 20061 38953 48523 51013 60005 333 54/15 55300 20018 90730 91110=
06791 16/// /2504 11006 21105 36837 47114 50003 60005 333 55300 20000 90730 91110=
06792 16/// /1902 10041 20004 38312 48528 52009 60005 333 54/15 55300 20000 90730 91106=
06793 16/// /1704 10072 20030 38449 48520 50003 60005 333 54/15 55300 20000 90730 91106=
06794 12974 00501 10117 20052 38965 48523 51017 60005 80000 333 54/15 55300 20011 90730 91109=
06795 16/// /2009 10030 21016 37391 47110 50000 60005 333 54/15 55300 20000 90730 91116=
06796 16/// /2207 10107 20017 38635 48518 52012 60005 333 54/15 55300 20007 90730 91115=
06797 16/// /1206 10046 20032 37781 48534 52007 60005 333 54/15 55300 20011 90730 91110=
06798 16/// /2605 10096 20016 38719 48516 51013 60005 333 54/15 55300 20004 90730 91109=
06799 46/// /2613 10057 21019 37656 47109 50001 333 54/15 55300 20000 90730 91117=
06990 12665 51704 10141 20095 39632 40167 51005 60005 81101 333 54/15 55300 20007 81845 85073 90730 91106=
07002 26/// /2214 10111 20097 30041 40123 56013 333 4//// 60007 90710 91125 555 60005=
07003 24680 82207 10122 20106 30104 40128 57013 700// 333 4/000 60007 90710 91113 555 60005=
07005 24/70 /1704 10122 20103 30045 40131 58012 700// 333 4/000 60007 90710 91107 555 60005=
07010 26/// /2312 10135 20093 30095 40114 58017 333 4//// 60007 90710 91121 555 60005=
07015 24783 82509 10134 20098 30070 40126 58007 700// 333 4/000 60007 90710 91114 555 60005=
07020 22458 82218 10111 20105 30127 40137 56005 885// 333 60007 88616 90710 91126 555 60005=
07024 24363 82521 10113 20100 39975 40139 55006 700// 333 4/000 69927 90710 91129 555 60005=
07027 24781 82606 10131 20097 30065 40145 50001 700// 333 4/000 60007 90710 91113 555 60005=
07028 22970 52609 10126 20103 30016 40140 58004 8503/ 333 60007 85360 90710 91113 92428 555 60005=
07031 24782 82805 10127 20101 39975 40146 58003 700// 333 4/000 60007 90710 91112 555 60005=
07037 24782 72603 10132 20104 39962 40143 50003 700// 333 4/000 60007 90710 91111 555 60005=
07038 24681 72406 10130 20093 39981 40146 52002 700// 333 4//// 60007 90710 91109 555 60005=
07040 26/// /2105 10139 20101 30084 40132 58011 333 4//// 60007 90710 91112 555 60005=
07046 24783 82409 10126 20098 30033 40142 58005 700// 333 4/000 60007 90710 91112 555 60005=
07055 24661 73007 10147 20103 30009 40141 53003 700// 333 4/000 60007 90710 91111 555 60005=
07057 24/70 /2401 10141 20085 30035 40140 56001 700// 333 4//// 60007 90710 91107 555 60005=
07059 24767 83005 10124 20103 30004 40138 50003 700// 333 4/000 60007 90710 91116 555 60005=
07061 24/70 /2607 10147 20093 30017 40133 56004 700// 333 4/000 60007 90710 91110 555 60005=
07072 24970 /1103 10094 20072 30028 40143 57006 700// 333 4/000 60007 90710 91103 555 60005=
07075 24970 /1102 10090 20068 39962 40141 57007 700// 333 4/000 60007 90710 91106 555 60005=
07093 24984 /2104 10125 20078 39846 40152 56005 700// 333 4/000 60007 90710 91106 555 60005=
07100 21230 82417 10116 20111 30072 40154 55002 75122 887// 333 60007 90710 91125 92445 555 60005=
07103 26/// /2423 1//// 2//// 3//// 4//// 333 4//// 6///7 90710 91127 555 6///5=
07107 26/// /2413 1//// 2//// 3//// 4//// 333 4//// 6///7 90710 91123 555 6///5=
07110 24361 82312 10117 20114 30043 40161 56003 700// 333 4/000 69927 90710 91120 555 60005=
07117 26/// /2412 10122 20111 30080 40150 56005 333 4//// 60007 90710 91123 555 60005=
07118 24359 82310 10120 20107 30050 40155 56004 700// 333 4//// 60007 90710 91120 555 60005=
07120 24470 82310 10121 20098 39994 40156 57004 700// 333 4/000 60007 90710 91120 555 60005=
07125 24583 82311 10131 20097 30083 40161 53004 700// 333 4/000 60007 90710 91117 555 60005=
07130 24985 /2207 10113 20089 30123 40168 50006 700// 333 4/000 60007 90710 91111 555 60005=
07134 24970 /2407 10120 20081 30044 40164 52008 700// 333 4/000 60007 90710 91115 555 60005=
07139 24970 /2504 10128 20094 39985 40158 53007 700// 333 4/000 60007 90710 91107 555 60005=
07140 24983 /2406 10090 20073 30005 40159 53004 700// 333 4//// 60007 90710 91108 555 60005=
07143 24970 /2703 10143 20101 39965 40149 53001 700// 333 4/000 60007 90710 91106 555 60005=
07145 24970 /2504 10154 20093 39940 40145 55002 700// 333 4//// 60007 90710 91109 555 60005=
07146 24981 /2506 10144 20092 39955 40146 55001 700// 333 4/000 60007 90710 91109 555 60005=
07149 22980 52306 10148 20094 30038 40145 57002 80001 333 60007 85076 90710 91110 93100 555 60005=
07150 24983 /2407 10170 20092 30083 40141 56003 700// 333 4/000 60007 90710 91111 555 60005=
07153 24970 /2203 10134 20091 30035 40145 58001 700// 333 4/000 60007 90710 91106 555 60005=
07156 24/70 /2607 10170 20089 30051 40143 56002 700// 333 4/000 60007 90710 91113 555 60005=
07157 22975 42406 10167 20084 30008 40140 57004 80001 333 60007 84076 90710 91112 93100 555 60005=
07166 24964 /1605 10114 20083 39945 40145 57010 700// 333 4/000 60007 90710 91106 555 60005=
07168 24970 /2004 10113 20087 30008 40150 56006 700// 333 4/000 60007 90710 91106 555 60005=
07169 24982 /1104 10123 20100 39983 40148 56007 700// 333 4//// 60007 90710 91104 555 60005=
07180 24983 /1302 10126 20085 39899 40152 56005 700// 333 4/000 60007 90710 91105 555 60005=
07181 24985 /1806 10137 20081 39749 40152 56006 700// 333 4//// 60007 90710 91108 555 60005=
07190 24982 /1904 10146 20090 39971 40150 58003 700// 333 4/000 60007 90710 91109 555 60005=
07200 21560 72318 1//// 2//// 3//// 4//// 70252 875// 333 6///7 90710 91124 92437 555 6///5=
07201 24260 82511 10120 20115 30069 40171 56003 700// 333 4//// 69967 90710 91121 555 69905=
07203 21458 82512 10122 20113 75252 886// 333 69907 90710 91122 92426 555 69905=
07205 24123 82610 10120 20117 30122 40175 57002 751// 333 4/000 69927 90710 91116 555 69925=
07207 26/// /2613 10129 20104 30130 40182 50001 333 4//// 60007 90710 91119 555 60005=
07217 24583 62507 10121 20088 30177 40181 52006 700// 333 4/000 60007 90710 91117 555 60005=
07222 24582 82808 10123 20088 30152 40183 53010 700// 333 4/000 60007 90710 91114 555 60005=
07230 24/70 /2708 10119 20087 30119 40177 53013 700// 333 4/000 60007 90710 91114 555 60005=
07235 24970 /2506 10147 20097 30102 40164 53009 700// 333 4/000 60007 90710 91113 555 60005=
07240 24983 /2605 10145 20089 30030 40163 53005 700// 333 4/000 60007 90710 91108 555 60005=
07245 24/70 /2505 10102 20074 30004 40161 53004 700// 333 4/000 60007 90710 91108 555 60005=
07249 24986 /2505 10132 20085 30003 40152 53002 700// 333 4/000 60007 90710 91109 555 60005=
07255 24/70 /2303 10148 20112 39968 40165 53003 700// 333 4/000 60007 90710 91107 555 60005=
07257 24975 /2405 10139 20105 39954 40164 53003 700// 333 4//// 60007 90710 91106 555 60005=
07260 24969 /0000 10130 20127 39955 40166 53003 700// 333 4/000 60007 90710 91103 555 60005=
07266 24970 /2203 10149 20101 39973 40154 55001 700// 333 4/000 60007 90710 91106 555 60005=
07280 24984 /0000 10126 20091 39893 40163 52001 700// 333 4/000 60007 90710 91104 555 60005=
07283 24970 /2303 10133 20066 39613 40158 57004 700// 333 4/000 60007 90710 91107 555 60005=
07288 26/// /0000 10127 20099 39800 40167 50000 333 4//// 60007 90710 91102 555 60005=
07292 24977 /0703 10130 20107 39838 40161 57003 700// 333 4/000 60007 90710 91105 555 60005=
07296 24970 /2204 10126 20089 39693 40166 58001 700// 333 4/000 60007 90710 91107 555 60005=
07299 22982 72002 10141 20091 39842 40164 51003 80002 333 60007 87077 90710 91105 93100 555 60005=
07300 21570 42909 10123 20082 30151 40190 53008 702// 84100 333 60007 90710 91117 92438 555 60005=
07306 24584 62906 10104 20085 30079 40187 53011 700// 333 4/000 60007 90710 91110 555 60005=
07314 22965 03013 10133 20094 30162 40190 53005 333 60007 90710 91117 555 60005=
07316 24985 /3210 10124 20090 30166 40188 53008 700// 333 4/000 60007 90710 91116 555 60005=
07330 24/70 /2706 10121 20084 30109 40183 53008 700// 333 4/000 60007 90710 91110 555 60005=
07335 24969 /2305 10123 20104 30029 40173 52004 700// 333 4/000 60007 90710 91108 555 60005=
07354 24974 /2404 10134 20113 39981 40168 53004 700// 333 4/000 60007 90710 91108 555 60005=
07361 24/66 /1501 10115 20094 39744 40176 53007 700// 333 4/000 60007 90710 91102 555 60005=
07374 24/68 /2101 10136 20122 39869 40166 53005 700// 333 4/000 60007 90710 91103 555 60005=
07379 24763 /1302 10137 20114 39878 40164 53001 700// 333 4/000 60007 90710 91105 555 60005=
07385 24/70 /3003 10153 20113 39908 40166 51004 700// 333 4/000 60007 90710 91105 555 60005=
07386 24965 /1102 10121 20112 39932 40165 54000 700// 333 4/000 60007 90710 91103 555 60005=
07412 24/81 /3105 10141 20105 30143 40180 53008 700// 333 4//// 60007 90710 91111 555 60005=
07434 24966 /2904 10144 20108 39703 40174 52003 700// 333 4/000 60007 90710 91106 555 60005=
07438 24/58 /1301 10160 20131 30037 40176 52010 700// 333 4/000 60007 90710 91103 555 60005=
07460 24981 /2503 10151 20099 39784 40166 51009 700// 333 4/000 60007 90710 91104 555 60005=
07471 24970 /2204 10139 20079 39229 4//// 51009 700// 333 4/000 60007 90710 91108 555 60005=
07475 24982 /1806 10129 20093 39707 40172 52006 700// 333 4/000 60007 90710 91107 555 60005=
07480 24984 /1302 10166 20095 39931 40164 53004 700// 333 4/000 60007 90710 91103 555 60005=
07481 24983 /1507 10199 20062 39883 40161 52003 700// 333 4/000 60007 90710 91108 555 60005=
07482 24/70 /1304 10168 20082 39873 40168 53003 700// 333 4/000 60007 90710 91109 555 60005=
07486 24982 /1105 10112 20069 39722 40179 53005 700// 333 4/000 60007 90710 91108 555 60005=
07487 26/// /0000 10162 20098 39911 40170 51018 333 4//// 60007 90710 91103 555 60005=
07490 24984 /0404 10131 20088 39646 40179 51011 700// 333 4/000 60007 90710 91107 555 60005=
07491 24963 /1803 10138 20092 39897 40176 53011 700// 333 4/000 60007 90710 91105 555 60005=
07497 26/// /3402 10128 20029 39196 48524 52020 333 4/000 60007 90710 91105 555 60005=
07500 22965 03412 10139 20112 30154 40188 53018 333 60007 90710 91121 555 60005 92437=
07503 24961 /3613 10138 20118 30140 40187 53019 700// 333 4//// 60007 90710 91120 555 60005=
07510 24966 /3106 10151 20117 30125 40182 53014 700// 333 4/000 60007 90710 91109 555 60005=
07524 24969 /0000 10159 20136 30090 40172 53011 700// 333 4/000 60007 90710 91102 555 60005=
07530 24961 /0602 10140 20124 30109 40171 52005 700// 333 4/000 60007 90710 91103 555 60005=
07535 24969 /1304 10153 20126 39870 40177 53009 700// 333 4/000 60007 90710 91105 555 60005=
07540 24/67 /1601 10163 20128 30047 40174 53009 700// 333 4/000 60007 90710 91103 555 60005=
07549 24961 /0503 10144 20092 39443 40179 52007 700// 333 4/000 60007 90710 91105 555 60005=
07552 24984 /1603 10128 20103 39512 40185 53006 700// 333 4/000 60007 90710 91104 555 60005=
07554 24970 /1103 10138 20054 39128 4//// 51008 700// 333 4/000 60007 90710 91106 555 60005=
07558 24/70 /3506 10168 20080 39360 40169 52008 700// 333 4/000 60007 90710 91110 555 60005=
07560 24/63 /3210 10103 20053 38468 4//// 51004 700// 333 4//// 60007 90710 91113 555 60005=
07563 24965 /1403 10162 20139 30122 40179 51016 700// 333 4/000 60007 90710 91106 555 60005=
07570 24/70 /2001 10176 20116 39856 40183 51013 700// 333 4//// 60007 90710 91103 555 60005=
07577 24/70 /0302 10163 20114 30082 40170 53014 700// 333 4/000 60007 90710 91106 555 60005=
07579 24971 /1406 10179 20136 30112 40177 52019 700// 333 4//// 60007 90710 91109 555 60005=
07586 26/// /1501 10169 20134 30055 40180 51020 333 4//// 60007 90710 91103 555 60005=
07588 24970 /1802 10160 20118 39646 40180 51023 700// 333 4/000 60007 90710 91105 555 60005=
07591 24/70 /3202 10153 20049 39185 4//// 51022 700// 333 4//// 60007 90710 91105 555 60005=
07600 26/// /2912 10162 20151 30152 40203 51026 333 4//// 60007 90710 91116 555 60005=
07602 24462 82708 10159 20143 30114 40199 51026 700// 333 4/000 60007 90710 91112 555 60005=
07603 26/// /2608 10152 20129 30149 40186 53029 333 4/000 60007 90710 91115 555 60005=
07607 24984 /3204 10185 20144 30103 40173 53014 700// 333 4/000 60007 90710 91106 555 60005=
07610 24969 /2301 10185 20148 39959 40173 53015 700// 333 4/000 60007 90710 91103 555 60005=
07621 24981 /1603 10150 20127 39753 40179 53013 700// 333 4/000 60007 90710 91105 555 60005=
07622 24/69 /0000 10156 20138 30023 40175 52012 700// 333 4/000 60007 90710 91102 555 60005=
07627 24970 /1503 10146 20112 39698 40183 53012 700// 333 4/000 60007 90710 91105 555 60005=
07628 24969 /3103 10162 20137 39952 40176 52011 700// 333 4//// 69907 90710 91103 555 60005=
07630 24969 /3402 10206 20133 39997 40171 53011 700// 333 4/000 60007 90710 91104 555 60005=
07632 24/70 /0000 10161 20106 39974 40176 53013 700// 333 4/000 60007 90710 91103 555 60005=
07635 24982 /0000 10169 20126 30023 40173 52015 700// 333 4/000 60007 90710 91103 555 60005=
07638 24982 /0303 10160 20124 30153 40172 52006 700// 333 4/000 60007 90710 91105 555 60005=
07641 26/// /2905 10194 20117 30081 40171 51007 333 4//// 60007 90710 91109 555 60005=
07643 24983 /2406 10185 20116 30163 40172 51007 700// 333 4//// 60007 90710 91107 555 60005=
07645 26/// /0601 10160 20122 30102 40176 51014 333 4/000 60007 90710 91104 555 60005=
07646 24982 /1704 10168 20129 30051 40175 51013 700// 333 4//// 60007 90710 91107 555 60005=
07647 24963 /1204 10173 20156 30150 40178 51011 700// 333 4//// 60007 90710 91107 555 60005=
07648 24962 /0703 10139 20119 30111 40182 51012 700// 333 4//// 60007 90710 91105 555 60005=
07650 24971 /0000 10177 20122 30142 40180 51011 700// 333 4/000 60007 90710 91103 555 60005=
07661 26/// /0704 10151 20148 30035 40181 51007 333 4//// 60007 90710 91105 555 60005=
07666 26/// /1703 10182 20151 30118 40165 53005 333 4//// 60007 90710 91106 555 60005=
07667 24924 /3001 10144 20129 30180 40185 51008 710// 333 4//// 69907 90710 91102 555 60005=
07675 24/65 /0000 10155 20132 30085 40183 51010 700// 333 4/000 60007 90710 91105 555 60005=
07684 24559 /0101 10148 20135 30179 40184 51007 700// 333 4//// 60007 90710 91102 555 60005=
07690 22460 71001 10171 20151 30152 40183 51007 875// 333 60007 84614 85618 90710 91105 555 60005=
07747 24982 /2407 10184 20128 30119 40171 53005 700// 333 4/000 60007 90710 91109 555 60005=
07749 26/// /3104 10210 20129 30071 40171 53009 333 4//// 60007 90710 91106 555 60005=
07753 26/// /2806 10160 20133 30008 40180 53002 333 4//// 60007 90710 91107 555 60005=
07754 24962 /2103 10137 20121 30113 40183 51004 700// 333 4//// 60007 90710 91106 555 60005=
07761 24960 /0403 10144 20112 30175 40186 53005 700// 333 4/000 60007 90710 91104 555 60005=
07765 24982 /3303 10169 20124 30166 40186 51008 700// 333 4//// 60007 90710 91107 555 60005=
07770 26/// /2401 10155 20132 30048 40186 50007 333 4//// 60007 90710 91104 555 60005=
07775 26/// /2503 10168 20155 30098 40186 51007 333 4//// 60007 90710 91105 555 60005=
07780 24962 /0403 10114 20101 30159 40187 50009 700// 333 4//// 60007 90710 91104 555 60005=
07785 26/// /0701 10155 20121 30054 40188 53005 333 4//// 60007 90710 91104 555 60005=
07790 24961 /2702 10147 20136 30173 40187 51007 700// 333 4/000 60007 90710 91103 555 60005=
08001 22470 73609 10129 20120 30140 40221 53016 87500 333 60007=
08002 26/65 /3605 10127 20114 30093 40218 53016 333 60007=
08008 26/69 /0403 10118 20100 39685 40212 51017 333 60007=
08011 21/01 90000 10129 20126 30058 40213 53013 74142 89/// 333 69907=
08015 21440 80304 10132 20124 39808 40209 53011 75152 886// 333 69907=
08021 21350 80000 10151 20151 30204 40206 51010 71052 886// 333 60007=
08023 21458 82603 10142 20137 30135 40206 53012 71022 886// 333 69907=
08025 22359 83002 10149 20134 30160 40207 51017 886// 333 60007=
08027 41250 80108 10134 20131 39893 40200 51020 71022 886//=
08042 22470 80106 10117 20094 39779 40215 53019 886// 333 60007=
08044 27/63 /3603 10140 20113 30057 40186 53024 710// 333 69907=
08045 22988 00212 10134 20120 39879 40186 53018 80000 333 60007=
08048 26/70 /0102 10205 20137 30002 40173 53027 333 60007=
08053 26/70 /2402 10212 20104 39542 40164 51029 333 60007=
08055 26/// /3605 10166 20078 39144 48531 53023 333 60007=
08075 26/// /0404 10137 20109 39168 42816 53016 333 60007=
08080 21459 63206 10150 20135 39601 40192 51030 71000 86600 333 60007=
08084 22965 10000 10157 20111 39752 40176 53014 81030 333 60007=
08085 22975 01304 10154 20106 39656 40183 53016 80000 333 60007=
08094 26/// /0504 10171 20098 39541 40177 53010 333 60007=
08130 26/70 /0401 10197 20125 39403 40154 53015 333 60007=
08141 22965 23402 10186 20088 39331 40159 51016 80002 333 60007=
08148 26/70 /0802 10158 20083 38969 48536 51014 333 60007=
08160 42970 00803 10194 20109 39869 40168 80000=
08171 27/70 /3602 10178 20092 39944 40178 53015 710// 333 69907=
08175 26/64 /3302 10164 20115 30094 40185 53010 333 60007=
08181 22970 23404 10182 20131 30177 40183 51009 81015 333 60007=
08184 26/// /2103 10158 20116 30024 40177 53009 333 60007=
08202 26/// /0809 10185 20090 39262 42805 52011 333 60007=
08210 26/70 /0607 10170 20053 38911 48533 53011 333 60007=
08213 26/70 /0902 10160 20072 39044 48529 53012 333 60007=
08215 26/63 /2502 10114 20016 38155 48540 53008 333 60007=
08221 22970 70702 10184 20089 39493 40155 53011 81038 333 60007=
08226 26/70 /0501 10187 20078 39334 40149 53010 333 60007=
08231 26/70 /1604 10169 20036 39108 42820 51013 333 60007=
08232 26/69 /1101 10125 20059 38987 48528 51014 333 60007=
08233 26/70 /1003 10159 20074 39177 42824 53012 333 60007=
08235 26/70 /1302 10155 20060 39160 42822 53017 333 60007=
08238 26/64 /2103 10175 20117 30125 40184 51014 333 60007=
08261 26/69 /1505 10182 20103 39698 40149 53014 333 60007=
08272 26/65 /1108 10196 20070 39563 40151 53017 333 60007=
08280 42980 00303 10132 20059 39367 40178 52012 80000=
08284 22981 12904 10152 20084 30109 40184 52008 80005 333 60007=
08286 26/70 /3102 10179 20093 30132 40184 51010 333 60007=
08306 22965 60707 10164 20107 30166 40172 51012 80006 333 60007=
08314 22975 20708 10163 20118 30071 40173 51004 80005 333 60007=
08330 26/// /0000 10194 20140 39919 40142 53011 333 60007=
08348 26/70 /0609 10176 20073 39436 40152 53019 333 60007=
08359 26/70 /3404 10204 20063 30055 40151 53005 333 60007=
08360 22970 33605 10196 20080 30114 40150 53004 80002 333 60007=
08373 22968 20411 10187 20090 30141 40161 58001 81035 333 60007=
08383 26/65 /0402 10186 20132 30119 40143 53008 333 60007=
08391 21580 82709 10197 20147 30092 40128 50003 70192 82973 333 60007 82927=
08397 41970 61004 10185 20131 30029 40132 52006 72992 82870=
08417 26/70 /1406 10201 20078 39481 40137 53027 333 60007=
08419 22870 61402 10164 20111 39485 40137 53020 81036 333 60007=
08430 26/70 /0404 10204 20074 30086 40159 53012 333 60007=
08433 22970 70316 10195 20119 30152 40156 53024 8701/ 333 60007=
08451 22368 32604 10184 20149 30111 40143 53013 83200 333 60007=
08482 22560 61511 10179 20138 30144 40152 53034 82877 333 60007=
08487 26/// /1007 10201 20122 30119 40144 53035 333 60007=
08495 46661 /2602 10185 20139 30141 40147 51023 333 86/35 555 7/096=



SMUS00 KWBC 242100
AAXX 24214